sensor_id;sensor_type;location;lat;lon;timestamp;P1;durP1;ratioP1;P2;durP2;ratioP2
14394;SDS011;7282;49.204;10.652;2022-12-29T00:01:30;3.70;;;3.30;;
14394;SDS011;7282;49.204;10.652;2022-12-29T00:03:57;3.73;;;3.30;;
14394;SDS011;7282;49.204;10.652;2022-12-29T00:06:24;3.90;;;3.43;;
14394;SDS011;7282;49.204;10.652;2022-12-29T00:08:51;4.53;;;3.87;;
14394;SDS011;7282;49.204;10.652;2022-12-29T00:11:24;4.03;;;3.40;;
14394;SDS011;7282;49.204;10.652;2022-12-29T00:13:47;3.70;;;3.17;;
14394;SDS011;7282;49.204;10.652;2022-12-29T00:16:32;3.73;;;3.20;;
14394;SDS011;7282;49.204;10.652;2022-12-29T00:18:59;4.00;;;3.60;;
14394;SDS011;7282;49.204;10.652;2022-12-29T00:21:26;4.90;;;3.87;;
14394;SDS011;7282;49.204;10.652;2022-12-29T00:24:12;3.60;;;3.30;;
14394;SDS011;7282;49.204;10.652;2022-12-29T00:26:58;4.50;;;3.80;;
14394;SDS011;7282;49.204;10.652;2022-12-29T00:29:43;3.63;;;3.23;;
14394;SDS011;7282;49.204;10.652;2022-12-29T00:32:28;4.03;;;3.50;;
14394;SDS011;7282;49.204;10.652;2022-12-29T00:35:14;3.70;;;3.40;;
14394;SDS011;7282;49.204;10.652;2022-12-29T00:37:43;4.20;;;3.47;;
14394;SDS011;7282;49.204;10.652;2022-12-29T00:40:29;3.90;;;3.60;;
14394;SDS011;7282;49.204;10.652;2022-12-29T00:43:18;3.73;;;3.33;;
14394;SDS011;7282;49.204;10.652;2022-12-29T00:46:01;3.27;;;2.97;;
14394;SDS011;7282;49.204;10.652;2022-12-29T00:48:28;4.07;;;3.37;;
14394;SDS011;7282;49.204;10.652;2022-12-29T00:51:12;3.40;;;3.10;;
14394;SDS011;7282;49.204;10.652;2022-12-29T00:53:39;3.27;;;2.97;;
14394;SDS011;7282;49.204;10.652;2022-12-29T00:56:06;3.37;;;3.07;;
14394;SDS011;7282;49.204;10.652;2022-12-29T00:58:33;3.50;;;3.20;;
14394;SDS011;7282;49.204;10.652;2022-12-29T01:01:03;3.27;;;2.97;;
14394;SDS011;7282;49.204;10.652;2022-12-29T01:03:30;4.53;;;3.30;;
14394;SDS011;7282;49.204;10.652;2022-12-29T01:05:59;3.23;;;2.90;;
14394;SDS011;7282;49.204;10.652;2022-12-29T01:08:26;3.73;;;3.10;;
14394;SDS011;7282;49.204;10.652;2022-12-29T01:11:00;2.93;;;2.73;;
14394;SDS011;7282;49.204;10.652;2022-12-29T01:13:27;3.20;;;2.90;;
14394;SDS011;7282;49.204;10.652;2022-12-29T01:15:54;3.00;;;2.80;;
14394;SDS011;7282;49.204;10.652;2022-12-29T01:18:21;3.07;;;2.80;;
14394;SDS011;7282;49.204;10.652;2022-12-29T01:20:48;3.47;;;2.90;;
14394;SDS011;7282;49.204;10.652;2022-12-29T01:23:15;3.33;;;3.00;;
14394;SDS011;7282;49.204;10.652;2022-12-29T01:25:42;3.40;;;3.10;;
14394;SDS011;7282;49.204;10.652;2022-12-29T01:28:08;4.30;;;2.80;;
14394;SDS011;7282;49.204;10.652;2022-12-29T01:30:35;3.50;;;2.90;;
14394;SDS011;7282;49.204;10.652;2022-12-29T01:33:02;5.00;;;3.53;;
14394;SDS011;7282;49.204;10.652;2022-12-29T01:35:29;3.10;;;2.90;;
14394;SDS011;7282;49.204;10.652;2022-12-29T01:37:55;4.00;;;2.87;;
14394;SDS011;7282;49.204;10.652;2022-12-29T01:40:22;3.50;;;3.20;;
14394;SDS011;7282;49.204;10.652;2022-12-29T01:42:49;3.33;;;3.00;;
14394;SDS011;7282;49.204;10.652;2022-12-29T01:45:16;3.20;;;2.90;;
14394;SDS011;7282;49.204;10.652;2022-12-29T01:47:46;3.33;;;3.03;;
14394;SDS011;7282;49.204;10.652;2022-12-29T01:50:13;3.27;;;2.97;;
14394;SDS011;7282;49.204;10.652;2022-12-29T01:52:50;2.90;;;2.63;;
14394;SDS011;7282;49.204;10.652;2022-12-29T01:55:13;3.87;;;3.00;;
14394;SDS011;7282;49.204;10.652;2022-12-29T01:57:40;3.27;;;2.80;;
14394;SDS011;7282;49.204;10.652;2022-12-29T02:00:09;3.03;;;2.67;;
14394;SDS011;7282;49.204;10.652;2022-12-29T02:02:36;4.30;;;2.77;;
14394;SDS011;7282;49.204;10.652;2022-12-29T02:05:05;3.53;;;2.90;;
14394;SDS011;7282;49.204;10.652;2022-12-29T02:07:31;3.33;;;2.97;;
14394;SDS011;7282;49.204;10.652;2022-12-29T02:09:58;3.20;;;2.77;;
14394;SDS011;7282;49.204;10.652;2022-12-29T02:12:26;3.07;;;2.77;;
14394;SDS011;7282;49.204;10.652;2022-12-29T02:14:55;3.17;;;2.87;;
14394;SDS011;7282;49.204;10.652;2022-12-29T02:17:27;3.00;;;2.60;;
14394;SDS011;7282;49.204;10.652;2022-12-29T02:20:09;3.10;;;2.90;;
14394;SDS011;7282;49.204;10.652;2022-12-29T02:22:34;3.10;;;2.80;;
14394;SDS011;7282;49.204;10.652;2022-12-29T02:25:14;3.03;;;2.50;;
14394;SDS011;7282;49.204;10.652;2022-12-29T02:27:40;3.47;;;3.00;;
14394;SDS011;7282;49.204;10.652;2022-12-29T02:30:07;3.63;;;2.90;;
14394;SDS011;7282;49.204;10.652;2022-12-29T02:35:15;3.23;;;2.93;;
14394;SDS011;7282;49.204;10.652;2022-12-29T02:38:03;3.53;;;2.90;;
14394;SDS011;7282;49.204;10.652;2022-12-29T02:40:43;3.23;;;2.70;;
14394;SDS011;7282;49.204;10.652;2022-12-29T02:48:22;3.23;;;2.90;;
14394;SDS011;7282;49.204;10.652;2022-12-29T02:51:04;4.40;;;2.70;;
14394;SDS011;7282;49.204;10.652;2022-12-29T02:53:33;2.90;;;2.60;;
14394;SDS011;7282;49.204;10.652;2022-12-29T02:56:19;2.97;;;2.73;;
14394;SDS011;7282;49.204;10.652;2022-12-29T02:58:46;3.53;;;2.83;;
14394;SDS011;7282;49.204;10.652;2022-12-29T03:01:20;2.80;;;2.60;;
14394;SDS011;7282;49.204;10.652;2022-12-29T03:03:48;4.27;;;2.50;;
14394;SDS011;7282;49.204;10.652;2022-12-29T03:06:22;3.83;;;2.77;;
14394;SDS011;7282;49.204;10.652;2022-12-29T03:11:22;3.20;;;2.57;;
14394;SDS011;7282;49.204;10.652;2022-12-29T03:14:14;3.00;;;2.50;;
14394;SDS011;7282;49.204;10.652;2022-12-29T03:17:06;2.87;;;2.23;;
14394;SDS011;7282;49.204;10.652;2022-12-29T03:19:30;3.43;;;2.73;;
14394;SDS011;7282;49.204;10.652;2022-12-29T03:22:07;2.50;;;2.30;;
14394;SDS011;7282;49.204;10.652;2022-12-29T03:24:50;3.20;;;2.77;;
14394;SDS011;7282;49.204;10.652;2022-12-29T03:27:19;2.47;;;2.27;;
14394;SDS011;7282;49.204;10.652;2022-12-29T03:29:46;2.60;;;2.03;;
14394;SDS011;7282;49.204;10.652;2022-12-29T03:32:16;2.67;;;2.30;;
14394;SDS011;7282;49.204;10.652;2022-12-29T03:34:42;3.63;;;2.27;;
14394;SDS011;7282;49.204;10.652;2022-12-29T03:37:11;2.50;;;2.30;;
14394;SDS011;7282;49.204;10.652;2022-12-29T03:39:38;4.57;;;2.63;;
14394;SDS011;7282;49.204;10.652;2022-12-29T03:42:05;2.83;;;2.43;;
14394;SDS011;7282;49.204;10.652;2022-12-29T03:44:35;4.07;;;2.63;;
14394;SDS011;7282;49.204;10.652;2022-12-29T03:47:02;3.20;;;2.43;;
14394;SDS011;7282;49.204;10.652;2022-12-29T03:49:29;3.37;;;2.10;;
14394;SDS011;7282;49.204;10.652;2022-12-29T03:51:56;2.97;;;2.40;;
14394;SDS011;7282;49.204;10.652;2022-12-29T03:54:23;3.17;;;2.57;;
14394;SDS011;7282;49.204;10.652;2022-12-29T03:56:50;2.33;;;2.10;;
14394;SDS011;7282;49.204;10.652;2022-12-29T03:59:16;2.47;;;2.27;;
14394;SDS011;7282;49.204;10.652;2022-12-29T04:01:43;2.27;;;2.07;;
14394;SDS011;7282;49.204;10.652;2022-12-29T04:04:10;2.50;;;2.30;;
14394;SDS011;7282;49.204;10.652;2022-12-29T04:06:37;3.20;;;2.20;;
14394;SDS011;7282;49.204;10.652;2022-12-29T04:09:03;2.50;;;2.20;;
14394;SDS011;7282;49.204;10.652;2022-12-29T04:11:30;2.33;;;2.13;;
14394;SDS011;7282;49.204;10.652;2022-12-29T04:13:57;4.17;;;2.20;;
14394;SDS011;7282;49.204;10.652;2022-12-29T04:16:23;2.20;;;2.00;;
14394;SDS011;7282;49.204;10.652;2022-12-29T04:18:50;3.43;;;2.17;;
14394;SDS011;7282;49.204;10.652;2022-12-29T04:21:17;2.70;;;2.40;;
14394;SDS011;7282;49.204;10.652;2022-12-29T04:23:43;3.73;;;2.37;;
14394;SDS011;7282;49.204;10.652;2022-12-29T04:26:10;4.47;;;2.10;;
14394;SDS011;7282;49.204;10.652;2022-12-29T04:28:37;2.30;;;2.10;;
14394;SDS011;7282;49.204;10.652;2022-12-29T04:31:04;2.97;;;2.30;;
14394;SDS011;7282;49.204;10.652;2022-12-29T04:33:31;2.50;;;2.00;;
14394;SDS011;7282;49.204;10.652;2022-12-29T04:35:58;2.40;;;1.93;;
14394;SDS011;7282;49.204;10.652;2022-12-29T04:38:24;3.67;;;2.13;;
14394;SDS011;7282;49.204;10.652;2022-12-29T04:40:51;2.30;;;2.10;;
14394;SDS011;7282;49.204;10.652;2022-12-29T04:43:18;2.27;;;2.00;;
14394;SDS011;7282;49.204;10.652;2022-12-29T04:45:45;2.63;;;2.17;;
14394;SDS011;7282;49.204;10.652;2022-12-29T04:48:12;2.40;;;2.20;;
14394;SDS011;7282;49.204;10.652;2022-12-29T04:50:39;2.50;;;2.30;;
14394;SDS011;7282;49.204;10.652;2022-12-29T04:53:07;4.13;;;2.60;;
14394;SDS011;7282;49.204;10.652;2022-12-29T04:55:34;4.13;;;2.77;;
14394;SDS011;7282;49.204;10.652;2022-12-29T04:58:00;3.57;;;2.80;;
14394;SDS011;7282;49.204;10.652;2022-12-29T05:00:27;2.47;;;2.27;;
14394;SDS011;7282;49.204;10.652;2022-12-29T05:02:54;2.93;;;2.63;;
14394;SDS011;7282;49.204;10.652;2022-12-29T05:05:20;2.43;;;2.10;;
14394;SDS011;7282;49.204;10.652;2022-12-29T05:07:47;3.30;;;2.87;;
14394;SDS011;7282;49.204;10.652;2022-12-29T05:10:14;2.50;;;2.30;;
14394;SDS011;7282;49.204;10.652;2022-12-29T05:12:41;3.23;;;2.53;;
14394;SDS011;7282;49.204;10.652;2022-12-29T05:15:08;3.03;;;2.67;;
14394;SDS011;7282;49.204;10.652;2022-12-29T05:17:35;4.27;;;2.20;;
14394;SDS011;7282;49.204;10.652;2022-12-29T05:20:03;2.67;;;2.37;;
14394;SDS011;7282;49.204;10.652;2022-12-29T05:22:30;2.83;;;2.43;;
14394;SDS011;7282;49.204;10.652;2022-12-29T05:24:57;2.50;;;2.30;;
14394;SDS011;7282;49.204;10.652;2022-12-29T05:27:23;2.37;;;2.13;;
14394;SDS011;7282;49.204;10.652;2022-12-29T05:29:50;3.13;;;2.20;;
14394;SDS011;7282;49.204;10.652;2022-12-29T05:32:17;2.97;;;2.40;;
14394;SDS011;7282;49.204;10.652;2022-12-29T05:34:43;2.60;;;2.40;;
14394;SDS011;7282;49.204;10.652;2022-12-29T05:37:10;2.30;;;2.10;;
14394;SDS011;7282;49.204;10.652;2022-12-29T05:39:37;4.43;;;2.37;;
14394;SDS011;7282;49.204;10.652;2022-12-29T05:42:03;2.90;;;2.27;;
14394;SDS011;7282;49.204;10.652;2022-12-29T05:44:30;3.60;;;2.60;;
14394;SDS011;7282;49.204;10.652;2022-12-29T05:46:57;3.03;;;2.50;;
14394;SDS011;7282;49.204;10.652;2022-12-29T05:49:23;3.17;;;2.87;;
14394;SDS011;7282;49.204;10.652;2022-12-29T05:51:50;3.03;;;2.23;;
14394;SDS011;7282;49.204;10.652;2022-12-29T05:54:17;2.67;;;2.40;;
14394;SDS011;7282;49.204;10.652;2022-12-29T05:56:44;2.50;;;2.30;;
14394;SDS011;7282;49.204;10.652;2022-12-29T05:59:10;2.73;;;2.53;;
14394;SDS011;7282;49.204;10.652;2022-12-29T06:01:37;3.50;;;2.90;;
14394;SDS011;7282;49.204;10.652;2022-12-29T06:04:04;3.13;;;2.90;;
14394;SDS011;7282;49.204;10.652;2022-12-29T06:06:30;3.37;;;2.60;;
14394;SDS011;7282;49.204;10.652;2022-12-29T06:08:57;6.17;;;2.83;;
14394;SDS011;7282;49.204;10.652;2022-12-29T06:11:24;3.60;;;2.70;;
14394;SDS011;7282;49.204;10.652;2022-12-29T06:13:50;2.50;;;2.30;;
14394;SDS011;7282;49.204;10.652;2022-12-29T06:16:17;4.40;;;2.70;;
14394;SDS011;7282;49.204;10.652;2022-12-29T06:18:44;2.60;;;2.40;;
14394;SDS011;7282;49.204;10.652;2022-12-29T06:21:10;2.77;;;2.53;;
14394;SDS011;7282;49.204;10.652;2022-12-29T06:23:37;4.30;;;2.57;;
14394;SDS011;7282;49.204;10.652;2022-12-29T06:26:04;3.17;;;2.10;;
14394;SDS011;7282;49.204;10.652;2022-12-29T06:28:30;3.00;;;2.70;;
14394;SDS011;7282;49.204;10.652;2022-12-29T06:30:57;2.30;;;2.10;;
14394;SDS011;7282;49.204;10.652;2022-12-29T06:33:24;2.53;;;2.30;;
14394;SDS011;7282;49.204;10.652;2022-12-29T06:35:51;3.40;;;2.50;;
14394;SDS011;7282;49.204;10.652;2022-12-29T06:38:17;2.60;;;2.40;;
14394;SDS011;7282;49.204;10.652;2022-12-29T06:40:44;2.90;;;2.60;;
14394;SDS011;7282;49.204;10.652;2022-12-29T06:43:11;2.67;;;2.47;;
14394;SDS011;7282;49.204;10.652;2022-12-29T06:45:38;3.43;;;2.90;;
14394;SDS011;7282;49.204;10.652;2022-12-29T06:48:07;2.77;;;2.57;;
14394;SDS011;7282;49.204;10.652;2022-12-29T06:50:34;2.70;;;2.50;;
14394;SDS011;7282;49.204;10.652;2022-12-29T06:53:01;2.70;;;2.50;;
14394;SDS011;7282;49.204;10.652;2022-12-29T06:55:27;2.93;;;2.40;;
14394;SDS011;7282;49.204;10.652;2022-12-29T06:57:55;2.87;;;2.43;;
14394;SDS011;7282;49.204;10.652;2022-12-29T07:00:22;2.70;;;2.50;;
14394;SDS011;7282;49.204;10.652;2022-12-29T07:02:49;2.83;;;2.40;;
14394;SDS011;7282;49.204;10.652;2022-12-29T07:05:16;3.37;;;2.30;;
14394;SDS011;7282;49.204;10.652;2022-12-29T07:07:43;3.20;;;2.70;;
14394;SDS011;7282;49.204;10.652;2022-12-29T07:10:09;2.77;;;2.57;;
14394;SDS011;7282;49.204;10.652;2022-12-29T07:12:36;3.33;;;2.70;;
14394;SDS011;7282;49.204;10.652;2022-12-29T07:15:03;2.63;;;2.43;;
14394;SDS011;7282;49.204;10.652;2022-12-29T07:17:30;4.13;;;2.50;;
14394;SDS011;7282;49.204;10.652;2022-12-29T07:19:56;2.90;;;2.60;;
14394;SDS011;7282;49.204;10.652;2022-12-29T07:22:23;3.23;;;2.50;;
14394;SDS011;7282;49.204;10.652;2022-12-29T07:24:50;2.63;;;2.43;;
14394;SDS011;7282;49.204;10.652;2022-12-29T07:27:16;2.97;;;2.53;;
14394;SDS011;7282;49.204;10.652;2022-12-29T07:29:43;3.57;;;2.40;;
14394;SDS011;7282;49.204;10.652;2022-12-29T07:32:10;2.47;;;2.27;;
14394;SDS011;7282;49.204;10.652;2022-12-29T07:34:36;2.70;;;2.50;;
14394;SDS011;7282;49.204;10.652;2022-12-29T07:37:05;4.33;;;2.70;;
14394;SDS011;7282;49.204;10.652;2022-12-29T07:39:32;2.90;;;2.33;;
14394;SDS011;7282;49.204;10.652;2022-12-29T07:41:59;2.50;;;2.30;;
14394;SDS011;7282;49.204;10.652;2022-12-29T07:44:26;2.57;;;2.37;;
14394;SDS011;7282;49.204;10.652;2022-12-29T07:46:52;3.20;;;2.50;;
14394;SDS011;7282;49.204;10.652;2022-12-29T07:49:19;3.90;;;2.33;;
14394;SDS011;7282;49.204;10.652;2022-12-29T07:51:46;2.53;;;2.20;;
14394;SDS011;7282;49.204;10.652;2022-12-29T07:54:12;3.00;;;2.63;;
14394;SDS011;7282;49.204;10.652;2022-12-29T07:56:39;2.60;;;2.40;;
14394;SDS011;7282;49.204;10.652;2022-12-29T07:59:06;2.57;;;2.37;;
14394;SDS011;7282;49.204;10.652;2022-12-29T08:01:33;2.67;;;2.20;;
14394;SDS011;7282;49.204;10.652;2022-12-29T08:03:59;2.70;;;2.50;;
14394;SDS011;7282;49.204;10.652;2022-12-29T08:06:26;3.93;;;2.70;;
14394;SDS011;7282;49.204;10.652;2022-12-29T08:08:54;2.60;;;2.40;;
14394;SDS011;7282;49.204;10.652;2022-12-29T08:11:22;2.60;;;2.40;;
14394;SDS011;7282;49.204;10.652;2022-12-29T08:13:48;2.30;;;2.10;;
14394;SDS011;7282;49.204;10.652;2022-12-29T08:16:15;2.67;;;2.47;;
14394;SDS011;7282;49.204;10.652;2022-12-29T08:18:42;4.50;;;2.80;;
14394;SDS011;7282;49.204;10.652;2022-12-29T08:21:09;4.63;;;3.00;;
14394;SDS011;7282;49.204;10.652;2022-12-29T08:23:36;2.70;;;2.50;;
14394;SDS011;7282;49.204;10.652;2022-12-29T08:26:03;2.53;;;2.33;;
14394;SDS011;7282;49.204;10.652;2022-12-29T08:28:30;2.60;;;2.30;;
14394;SDS011;7282;49.204;10.652;2022-12-29T08:30:58;2.87;;;2.30;;
14394;SDS011;7282;49.204;10.652;2022-12-29T08:33:24;4.43;;;2.77;;
14394;SDS011;7282;49.204;10.652;2022-12-29T08:35:51;2.47;;;2.27;;
14394;SDS011;7282;49.204;10.652;2022-12-29T08:38:18;2.73;;;2.50;;
14394;SDS011;7282;49.204;10.652;2022-12-29T08:40:45;3.10;;;2.20;;
14394;SDS011;7282;49.204;10.652;2022-12-29T08:43:11;4.00;;;2.90;;
14394;SDS011;7282;49.204;10.652;2022-12-29T08:45:38;3.90;;;2.90;;
14394;SDS011;7282;49.204;10.652;2022-12-29T08:48:05;3.97;;;3.40;;
14394;SDS011;7282;49.204;10.652;2022-12-29T08:50:31;4.00;;;2.70;;
14394;SDS011;7282;49.204;10.652;2022-12-29T08:52:58;3.60;;;3.30;;
14394;SDS011;7282;49.204;10.652;2022-12-29T08:55:25;3.20;;;2.90;;
14394;SDS011;7282;49.204;10.652;2022-12-29T08:57:52;3.50;;;3.20;;
14394;SDS011;7282;49.204;10.652;2022-12-29T09:00:18;3.53;;;3.07;;
14394;SDS011;7282;49.204;10.652;2022-12-29T09:02:46;4.87;;;3.00;;
14394;SDS011;7282;49.204;10.652;2022-12-29T09:05:13;4.00;;;2.93;;
14394;SDS011;7282;49.204;10.652;2022-12-29T09:07:40;3.17;;;2.80;;
14394;SDS011;7282;49.204;10.652;2022-12-29T09:10:06;3.37;;;3.00;;
14394;SDS011;7282;49.204;10.652;2022-12-29T09:12:33;2.60;;;2.33;;
14394;SDS011;7282;49.204;10.652;2022-12-29T09:15:00;3.03;;;2.67;;
14394;SDS011;7282;49.204;10.652;2022-12-29T09:17:26;2.40;;;2.10;;
14394;SDS011;7282;49.204;10.652;2022-12-29T09:20:10;2.70;;;2.50;;
14394;SDS011;7282;49.204;10.652;2022-12-29T09:22:36;4.10;;;2.60;;
14394;SDS011;7282;49.204;10.652;2022-12-29T09:25:03;2.97;;;2.40;;
14394;SDS011;7282;49.204;10.652;2022-12-29T09:27:30;3.10;;;2.80;;
14394;SDS011;7282;49.204;10.652;2022-12-29T09:29:57;3.87;;;2.30;;
14394;SDS011;7282;49.204;10.652;2022-12-29T09:32:24;5.13;;;2.50;;
14394;SDS011;7282;49.204;10.652;2022-12-29T09:34:53;4.97;;;2.40;;
14394;SDS011;7282;49.204;10.652;2022-12-29T09:37:20;3.93;;;2.43;;
14394;SDS011;7282;49.204;10.652;2022-12-29T09:39:47;3.20;;;2.20;;
14394;SDS011;7282;49.204;10.652;2022-12-29T09:42:16;2.90;;;2.47;;
14394;SDS011;7282;49.204;10.652;2022-12-29T09:47:28;3.00;;;2.27;;
14394;SDS011;7282;49.204;10.652;2022-12-29T09:49:59;2.40;;;2.20;;
14394;SDS011;7282;49.204;10.652;2022-12-29T09:52:37;2.67;;;2.10;;
14394;SDS011;7282;49.204;10.652;2022-12-29T09:55:00;3.20;;;2.53;;
14394;SDS011;7282;49.204;10.652;2022-12-29T09:57:36;2.93;;;2.43;;
14394;SDS011;7282;49.204;10.652;2022-12-29T10:00:03;2.60;;;2.20;;
14394;SDS011;7282;49.204;10.652;2022-12-29T10:02:37;3.50;;;2.70;;
14394;SDS011;7282;49.204;10.652;2022-12-29T10:05:09;2.60;;;2.40;;
14394;SDS011;7282;49.204;10.652;2022-12-29T10:10:29;3.93;;;3.00;;
14394;SDS011;7282;49.204;10.652;2022-12-29T10:13:07;2.87;;;2.57;;
14394;SDS011;7282;49.204;10.652;2022-12-29T10:18:37;4.37;;;2.73;;
14394;SDS011;7282;49.204;10.652;2022-12-29T10:21:16;3.03;;;2.73;;
14394;SDS011;7282;49.204;10.652;2022-12-29T10:23:53;3.37;;;2.73;;
14394;SDS011;7282;49.204;10.652;2022-12-29T10:26:21;3.33;;;2.83;;
14394;SDS011;7282;49.204;10.652;2022-12-29T10:28:54;5.27;;;2.80;;
14394;SDS011;7282;49.204;10.652;2022-12-29T10:31:22;2.73;;;2.27;;
14394;SDS011;7282;49.204;10.652;2022-12-29T10:33:48;3.50;;;2.50;;
14394;SDS011;7282;49.204;10.652;2022-12-29T10:36:20;4.20;;;2.63;;
14394;SDS011;7282;49.204;10.652;2022-12-29T10:38:47;5.00;;;2.80;;
14394;SDS011;7282;49.204;10.652;2022-12-29T10:41:25;4.73;;;3.10;;
14394;SDS011;7282;49.204;10.652;2022-12-29T10:43:48;2.87;;;2.57;;
14394;SDS011;7282;49.204;10.652;2022-12-29T10:46:29;4.27;;;2.77;;
14394;SDS011;7282;49.204;10.652;2022-12-29T10:48:57;4.37;;;2.77;;
14394;SDS011;7282;49.204;10.652;2022-12-29T10:51:24;3.97;;;2.47;;
14394;SDS011;7282;49.204;10.652;2022-12-29T10:53:53;2.73;;;2.50;;
14394;SDS011;7282;49.204;10.652;2022-12-29T10:56:34;3.43;;;3.00;;
14394;SDS011;7282;49.204;10.652;2022-12-29T11:01:52;2.50;;;2.30;;
14394;SDS011;7282;49.204;10.652;2022-12-29T11:04:19;2.93;;;2.20;;
14394;SDS011;7282;49.204;10.652;2022-12-29T11:06:43;3.13;;;2.43;;
14394;SDS011;7282;49.204;10.652;2022-12-29T11:09:16;3.47;;;2.73;;
14394;SDS011;7282;49.204;10.652;2022-12-29T11:11:41;2.30;;;2.10;;
14394;SDS011;7282;49.204;10.652;2022-12-29T11:14:12;4.67;;;2.63;;
14394;SDS011;7282;49.204;10.652;2022-12-29T11:16:37;3.60;;;2.43;;
14394;SDS011;7282;49.204;10.652;2022-12-29T11:19:04;4.27;;;2.60;;
14394;SDS011;7282;49.204;10.652;2022-12-29T11:21:37;4.43;;;2.60;;
14394;SDS011;7282;49.204;10.652;2022-12-29T11:24:21;3.63;;;2.20;;
14394;SDS011;7282;49.204;10.652;2022-12-29T11:26:52;3.17;;;2.40;;
14394;SDS011;7282;49.204;10.652;2022-12-29T11:29:30;3.30;;;2.30;;
14394;SDS011;7282;49.204;10.652;2022-12-29T11:31:50;3.63;;;2.50;;
14394;SDS011;7282;49.204;10.652;2022-12-29T11:34:23;3.27;;;2.83;;
14394;SDS011;7282;49.204;10.652;2022-12-29T11:36:46;3.03;;;2.20;;
14394;SDS011;7282;49.204;10.652;2022-12-29T11:41:51;3.33;;;2.60;;
14394;SDS011;7282;49.204;10.652;2022-12-29T11:44:19;2.93;;;2.30;;
14394;SDS011;7282;49.204;10.652;2022-12-29T11:46:47;2.70;;;2.50;;
14394;SDS011;7282;49.204;10.652;2022-12-29T11:49:18;4.30;;;2.33;;
14394;SDS011;7282;49.204;10.652;2022-12-29T11:51:43;4.13;;;2.50;;
14394;SDS011;7282;49.204;10.652;2022-12-29T11:54:13;3.57;;;2.73;;
14394;SDS011;7282;49.204;10.652;2022-12-29T11:56:40;2.77;;;2.50;;
14394;SDS011;7282;49.204;10.652;2022-12-29T12:01:53;4.67;;;2.83;;
14394;SDS011;7282;49.204;10.652;2022-12-29T12:04:24;4.07;;;2.60;;
14394;SDS011;7282;49.204;10.652;2022-12-29T12:06:56;2.40;;;2.20;;
14394;SDS011;7282;49.204;10.652;2022-12-29T12:09:22;3.17;;;2.40;;
14394;SDS011;7282;49.204;10.652;2022-12-29T12:11:48;5.53;;;2.77;;
14394;SDS011;7282;49.204;10.652;2022-12-29T12:14:18;3.30;;;2.57;;
14394;SDS011;7282;49.204;10.652;2022-12-29T12:16:47;3.30;;;2.73;;
14394;SDS011;7282;49.204;10.652;2022-12-29T12:24:49;3.03;;;2.47;;
14394;SDS011;7282;49.204;10.652;2022-12-29T12:27:31;3.50;;;2.53;;
14394;SDS011;7282;49.204;10.652;2022-12-29T12:30:04;3.47;;;2.50;;
14394;SDS011;7282;49.204;10.652;2022-12-29T12:32:45;3.60;;;3.27;;
14394;SDS011;7282;49.204;10.652;2022-12-29T12:35:19;3.70;;;2.70;;
14394;SDS011;7282;49.204;10.652;2022-12-29T12:37:58;3.57;;;2.83;;
14394;SDS011;7282;49.204;10.652;2022-12-29T12:42:53;3.67;;;3.03;;
14394;SDS011;7282;49.204;10.652;2022-12-29T12:45:32;4.10;;;3.10;;
14394;SDS011;7282;49.204;10.652;2022-12-29T12:48:09;3.57;;;3.10;;
14394;SDS011;7282;49.204;10.652;2022-12-29T12:50:40;3.80;;;3.07;;
14394;SDS011;7282;49.204;10.652;2022-12-29T12:55:56;3.23;;;2.90;;
14394;SDS011;7282;49.204;10.652;2022-12-29T12:58:25;3.60;;;2.70;;
14394;SDS011;7282;49.204;10.652;2022-12-29T13:00:57;4.77;;;3.03;;
14394;SDS011;7282;49.204;10.652;2022-12-29T13:03:41;4.60;;;3.00;;
14394;SDS011;7282;49.204;10.652;2022-12-29T13:06:09;4.07;;;2.93;;
14394;SDS011;7282;49.204;10.652;2022-12-29T13:08:33;4.33;;;3.07;;
14394;SDS011;7282;49.204;10.652;2022-12-29T13:11:02;5.07;;;3.13;;
14394;SDS011;7282;49.204;10.652;2022-12-29T13:13:30;4.27;;;3.10;;
14394;SDS011;7282;49.204;10.652;2022-12-29T13:15:59;5.47;;;2.80;;
14394;SDS011;7282;49.204;10.652;2022-12-29T13:18:27;3.50;;;2.40;;
14394;SDS011;7282;49.204;10.652;2022-12-29T13:20:54;5.50;;;2.87;;
14394;SDS011;7282;49.204;10.652;2022-12-29T13:23:26;3.30;;;2.80;;
14394;SDS011;7282;49.204;10.652;2022-12-29T13:26:03;4.43;;;2.90;;
14394;SDS011;7282;49.204;10.652;2022-12-29T13:28:32;3.43;;;2.80;;
14394;SDS011;7282;49.204;10.652;2022-12-29T13:31:09;3.87;;;2.60;;
14394;SDS011;7282;49.204;10.652;2022-12-29T13:36:21;4.23;;;2.57;;
14394;SDS011;7282;49.204;10.652;2022-12-29T13:38:47;3.07;;;2.77;;
14394;SDS011;7282;49.204;10.652;2022-12-29T13:41:25;3.23;;;2.73;;
14394;SDS011;7282;49.204;10.652;2022-12-29T13:43:49;3.80;;;2.50;;
14394;SDS011;7282;49.204;10.652;2022-12-29T13:46:18;3.30;;;2.80;;
14394;SDS011;7282;49.204;10.652;2022-12-29T13:48:53;4.57;;;2.97;;
14394;SDS011;7282;49.204;10.652;2022-12-29T13:51:20;4.10;;;2.70;;
14394;SDS011;7282;49.204;10.652;2022-12-29T13:54:01;5.83;;;3.37;;
14394;SDS011;7282;49.204;10.652;2022-12-29T13:59:15;5.27;;;2.90;;
14394;SDS011;7282;49.204;10.652;2022-12-29T14:01:43;3.70;;;3.30;;
14394;SDS011;7282;49.204;10.652;2022-12-29T14:04:12;4.20;;;3.77;;
14394;SDS011;7282;49.204;10.652;2022-12-29T14:06:39;6.10;;;3.93;;
14394;SDS011;7282;49.204;10.652;2022-12-29T14:09:31;7.37;;;4.73;;
14394;SDS011;7282;49.204;10.652;2022-12-29T14:11:59;7.07;;;4.50;;
14394;SDS011;7282;49.204;10.652;2022-12-29T14:14:24;4.03;;;3.27;;
14394;SDS011;7282;49.204;10.652;2022-12-29T14:16:51;6.30;;;3.40;;
14394;SDS011;7282;49.204;10.652;2022-12-29T14:19:24;4.10;;;3.67;;
14394;SDS011;7282;49.204;10.652;2022-12-29T14:21:57;3.77;;;3.40;;
14394;SDS011;7282;49.204;10.652;2022-12-29T14:34:49;4.00;;;3.60;;
14394;SDS011;7282;49.204;10.652;2022-12-29T14:40:14;4.90;;;3.47;;
14394;SDS011;7282;49.204;10.652;2022-12-29T14:42:34;3.50;;;3.17;;
14394;SDS011;7282;49.204;10.652;2022-12-29T14:45:02;3.63;;;3.30;;
14394;SDS011;7282;49.204;10.652;2022-12-29T14:50:05;6.87;;;3.77;;
14394;SDS011;7282;49.204;10.652;2022-12-29T14:52:30;6.33;;;3.67;;
14394;SDS011;7282;49.204;10.652;2022-12-29T14:54:59;5.93;;;3.40;;
14394;SDS011;7282;49.204;10.652;2022-12-29T14:57:28;6.77;;;4.00;;
14394;SDS011;7282;49.204;10.652;2022-12-29T14:59:58;6.20;;;3.70;;
14394;SDS011;7282;49.204;10.652;2022-12-29T15:02:26;3.97;;;3.57;;
14394;SDS011;7282;49.204;10.652;2022-12-29T15:04:53;3.50;;;3.17;;
14394;SDS011;7282;49.204;10.652;2022-12-29T15:07:21;3.10;;;2.80;;
14394;SDS011;7282;49.204;10.652;2022-12-29T15:09:51;4.03;;;3.10;;
14394;SDS011;7282;49.204;10.652;2022-12-29T15:14:49;3.77;;;2.97;;
14394;SDS011;7282;49.204;10.652;2022-12-29T15:17:29;3.83;;;3.43;;
14394;SDS011;7282;49.204;10.652;2022-12-29T15:19:57;4.63;;;3.53;;
14394;SDS011;7282;49.204;10.652;2022-12-29T15:22:24;3.97;;;3.37;;
14394;SDS011;7282;49.204;10.652;2022-12-29T15:24:52;4.87;;;3.70;;
14394;SDS011;7282;49.204;10.652;2022-12-29T15:27:20;4.60;;;3.10;;
14394;SDS011;7282;49.204;10.652;2022-12-29T15:29:47;4.90;;;3.57;;
14394;SDS011;7282;49.204;10.652;2022-12-29T15:32:19;3.83;;;3.03;;
14394;SDS011;7282;49.204;10.652;2022-12-29T15:34:47;4.33;;;3.87;;
14394;SDS011;7282;49.204;10.652;2022-12-29T15:37:17;5.63;;;3.33;;
14394;SDS011;7282;49.204;10.652;2022-12-29T15:39:43;6.13;;;3.70;;
14394;SDS011;7282;49.204;10.652;2022-12-29T15:42:16;4.23;;;3.23;;
14394;SDS011;7282;49.204;10.652;2022-12-29T15:44:39;3.80;;;3.40;;
14394;SDS011;7282;49.204;10.652;2022-12-29T15:47:11;5.97;;;3.70;;
14394;SDS011;7282;49.204;10.652;2022-12-29T15:49:35;4.80;;;3.73;;
14394;SDS011;7282;49.204;10.652;2022-12-29T15:52:05;5.47;;;3.67;;
14394;SDS011;7282;49.204;10.652;2022-12-29T15:54:30;4.53;;;3.57;;
14394;SDS011;7282;49.204;10.652;2022-12-29T15:56:57;3.67;;;3.37;;
14394;SDS011;7282;49.204;10.652;2022-12-29T16:01:56;4.40;;;3.27;;
14394;SDS011;7282;49.204;10.652;2022-12-29T16:04:24;3.77;;;3.47;;